createdAt,value
2017-10-17T00:00:55.782Z,18.38
2017-10-17T00:03:22.074Z,18.36
2017-10-17T00:05:48.397Z,18.39
2017-10-17T00:08:15.402Z,18.42
2017-10-17T00:10:41.889Z,18.42
2017-10-17T00:13:08.925Z,18.43
2017-10-17T00:15:35.974Z,18.36
2017-10-17T00:18:03.085Z,18.35
2017-10-17T00:20:29.374Z,18.34
2017-10-17T00:22:55.862Z,18.31
2017-10-17T00:25:22.163Z,18.29
2017-10-17T00:27:48.485Z,18.32
2017-10-17T00:30:18.698Z,18.41
2017-10-17T00:32:44.950Z,18.40
2017-10-17T00:35:29.216Z,18.32
2017-10-17T00:37:56.306Z,18.33
2017-10-17T00:40:23.353Z,18.32
2017-10-17T00:42:50.375Z,18.33
2017-10-17T00:45:16.629Z,18.32
2017-10-17T00:47:43.678Z,18.27
2017-10-17T00:50:10.736Z,18.27
2017-10-17T00:52:37.032Z,18.27
2017-10-17T00:55:04.081Z,18.29
2017-10-17T00:57:31.175Z,18.24
2017-10-17T00:59:57.429Z,18.22
2017-10-17T01:02:23.720Z,18.19
2017-10-17T01:04:50.009Z,18.15
2017-10-17T01:07:16.313Z,18.17
2017-10-17T01:09:42.891Z,18.14
2017-10-17T01:12:09.907Z,18.13
2017-10-17T01:14:36.202Z,18.10
2017-10-17T01:17:02.517Z,18.07
2017-10-17T01:19:28.784Z,18.06
2017-10-17T01:21:55.110Z,18.02
2017-10-17T01:24:21.435Z,17.98
2017-10-17T01:26:47.701Z,17.97
2017-10-17T01:29:13.995Z,17.96
2017-10-17T01:31:45.603Z,17.91
2017-10-17T01:34:12.606Z,17.93
2017-10-17T01:36:40.737Z,17.88
2017-10-17T01:39:07.001Z,17.87
2017-10-17T01:41:33.288Z,17.82
2017-10-17T01:44:07.105Z,17.79
2017-10-17T01:46:37.145Z,17.75
2017-10-17T01:49:07.383Z,17.71
2017-10-17T01:51:48.328Z,17.63
2017-10-17T01:54:14.623Z,17.58
2017-10-17T01:56:41.657Z,17.60
2017-10-17T01:59:15.414Z,17.52
2017-10-17T02:01:41.713Z,17.49
2017-10-17T02:04:08.745Z,17.52
2017-10-17T02:06:35.906Z,17.46
2017-10-17T02:09:02.920Z,17.37
2017-10-17T02:11:29.211Z,17.38
2017-10-17T02:13:55.775Z,17.36
2017-10-17T02:16:22.029Z,17.33
2017-10-17T02:18:53.152Z,17.28
2017-10-17T02:21:27.358Z,17.25
2017-10-17T02:23:53.617Z,17.26
2017-10-17T02:26:20.888Z,17.21
2017-10-17T02:29:12.793Z,17.21
2017-10-17T02:31:39.061Z,17.17
2017-10-17T02:34:29.341Z,17.20
2017-10-17T02:36:56.393Z,17.16
2017-10-17T02:39:22.686Z,17.15
2017-10-17T02:41:49.199Z,17.08
2017-10-17T02:44:15.481Z,17.08
2017-10-17T02:46:42.473Z,17.11
2017-10-17T02:49:10.669Z,17.03
2017-10-17T02:51:36.927Z,17.05
2017-10-17T02:54:03.968Z,17.12
2017-10-17T02:56:31.077Z,17.00
2017-10-17T02:58:57.341Z,16.97
2017-10-17T03:01:34.221Z,16.91
2017-10-17T03:04:01.209Z,16.90
2017-10-17T03:06:27.485Z,16.89
2017-10-17T03:08:53.821Z,16.85
2017-10-17T03:11:20.813Z,16.83
2017-10-17T03:13:50.791Z,16.85
2017-10-17T03:16:17.817Z,16.85
2017-10-17T03:18:44.065Z,16.81
2017-10-17T03:21:14.090Z,16.79
2017-10-17T03:23:41.113Z,16.76
2017-10-17T03:26:07.390Z,16.75
2017-10-17T03:28:46.509Z,16.75
2017-10-17T03:31:12.777Z,16.77
2017-10-17T03:33:39.033Z,16.78
2017-10-17T03:39:05.098Z,16.75
2017-10-17T03:41:32.930Z,16.73
2017-10-17T03:47:12.234Z,16.71
2017-10-17T03:50:01.237Z,16.72
2017-10-17T03:52:35.345Z,16.72
2017-10-17T03:55:01.643Z,16.73
2017-10-17T03:57:27.922Z,16.72
2017-10-17T03:59:58.888Z,16.70
2017-10-17T04:02:25.929Z,16.67
2017-10-17T04:05:13.562Z,16.67
2017-10-17T04:07:48.421Z,16.62
2017-10-17T04:10:29.548Z,16.56
2017-10-17T04:15:51.697Z,16.54
2017-10-17T04:21:30.730Z,16.42
2017-10-17T04:24:08.927Z,16.41
2017-10-17T04:26:35.164Z,16.38
2017-10-17T04:29:34.094Z,16.31
2017-10-17T04:32:01.145Z,16.32
2017-10-17T04:37:30.391Z,16.32
2017-10-17T04:39:56.685Z,16.35
2017-10-17T04:42:54.886Z,16.28
2017-10-17T04:45:39.486Z,16.30
2017-10-17T04:48:15.535Z,16.28
2017-10-17T04:51:00.361Z,16.25
2017-10-17T04:53:42.718Z,16.22
2017-10-17T04:56:16.213Z,16.24
2017-10-17T05:08:21.430Z,16.13
2017-10-17T05:10:55.425Z,16.13
2017-10-17T05:16:57.523Z,16.17
2017-10-17T05:22:19.381Z,16.13
2017-10-17T05:24:49.368Z,16.22
2017-10-17T05:30:46.973Z,16.17
2017-10-17T05:33:39.090Z,16.15
2017-10-17T05:36:17.272Z,16.14
2017-10-17T05:38:43.548Z,16.15
2017-10-17T05:41:09.872Z,16.14
2017-10-17T05:46:53.490Z,16.17
2017-10-17T05:52:18.189Z,16.00
2017-10-17T05:54:44.411Z,16.00
2017-10-17T05:57:10.658Z,15.97
2017-10-17T05:59:36.862Z,15.98
2017-10-17T06:02:03.133Z,15.97
2017-10-17T06:04:29.366Z,15.98
2017-10-17T06:06:55.578Z,16.01
2017-10-17T06:09:21.843Z,16.03
2017-10-17T06:11:48.066Z,16.01
2017-10-17T06:14:14.302Z,16.02
2017-10-17T06:16:40.549Z,15.99
2017-10-17T06:19:07.574Z,15.97
2017-10-17T06:21:33.817Z,15.93
2017-10-17T06:24:00.809Z,15.90
2017-10-17T06:26:27.029Z,15.86
2017-10-17T06:28:53.251Z,15.83
2017-10-17T06:31:19.503Z,15.86
2017-10-17T06:33:45.725Z,15.89
2017-10-17T06:36:11.953Z,15.83
2017-10-17T06:38:38.211Z,15.86
2017-10-17T06:41:04.441Z,15.85
2017-10-17T06:43:30.684Z,15.90
2017-10-17T06:45:57.699Z,15.91
2017-10-17T06:48:23.948Z,15.94
2017-10-17T06:50:50.210Z,15.94
2017-10-17T06:53:16.783Z,15.94
2017-10-17T06:55:43.017Z,16.00
2017-10-17T06:58:09.249Z,15.97
2017-10-17T07:00:35.535Z,16.03
2017-10-17T07:03:01.786Z,16.01
2017-10-17T07:05:28.042Z,16.00
2017-10-17T07:07:54.673Z,15.97
2017-10-17T07:10:20.929Z,15.96
2017-10-17T07:12:47.919Z,15.94
2017-10-17T07:15:14.180Z,15.93
2017-10-17T07:17:40.418Z,15.88
2017-10-17T07:20:06.666Z,15.89
2017-10-17T07:22:33.993Z,15.87
2017-10-17T07:25:00.421Z,15.81
2017-10-17T07:27:26.666Z,15.80
2017-10-17T07:29:52.978Z,15.81
2017-10-17T07:32:19.254Z,15.81
2017-10-17T07:34:46.250Z,15.83
2017-10-17T07:37:12.780Z,15.84
2017-10-17T07:39:39.097Z,15.79
2017-10-17T07:42:05.364Z,15.78
2017-10-17T07:44:31.672Z,15.80
2017-10-17T07:46:57.969Z,15.77
2017-10-17T07:49:24.224Z,15.82
2017-10-17T07:51:50.797Z,15.84
2017-10-17T07:54:17.376Z,15.84
2017-10-17T07:56:43.673Z,15.85
2017-10-17T07:59:10.709Z,15.90
2017-10-17T08:01:36.976Z,15.94
2017-10-17T08:04:03.208Z,15.97
2017-10-17T08:06:29.965Z,15.97
2017-10-17T08:08:56.299Z,15.96
2017-10-17T08:11:47.320Z,15.99
2017-10-17T08:14:13.639Z,15.93
2017-10-17T08:16:39.927Z,15.94
2017-10-17T08:19:06.957Z,15.91
2017-10-17T08:21:33.957Z,15.90
2017-10-17T08:24:00.203Z,15.94
2017-10-17T08:26:27.628Z,15.97
2017-10-17T08:28:55.162Z,15.99
2017-10-17T08:31:22.184Z,16.01
2017-10-17T08:36:21.145Z,15.98
2017-10-17T08:38:48.220Z,15.98
2017-10-17T08:41:14.489Z,16.00
2017-10-17T08:43:41.478Z,16.02
2017-10-17T08:46:07.750Z,16.04
2017-10-17T08:48:34.813Z,16.05
2017-10-17T08:51:01.837Z,16.09
2017-10-17T08:53:28.587Z,16.02
2017-10-17T08:55:55.614Z,16.06
2017-10-17T08:58:21.862Z,16.06
2017-10-17T09:00:49.263Z,16.12
2017-10-17T09:03:15.833Z,16.14
2017-10-17T09:05:42.150Z,16.17
2017-10-17T09:08:08.773Z,16.15
2017-10-17T09:10:35.430Z,16.11
2017-10-17T09:13:01.705Z,16.17
2017-10-17T09:15:28.738Z,16.20
2017-10-17T09:17:56.063Z,16.25
2017-10-17T09:20:22.329Z,16.24
2017-10-17T09:22:49.320Z,16.39
2017-10-17T09:25:15.616Z,16.43
2017-10-17T09:27:41.858Z,16.46
2017-10-17T09:30:08.103Z,16.46
2017-10-17T09:32:34.681Z,16.55
2017-10-17T09:35:01.020Z,16.63
2017-10-17T09:37:28.531Z,16.73
2017-10-17T09:39:55.199Z,16.66
2017-10-17T09:42:21.440Z,16.73
2017-10-17T09:44:48.444Z,16.75
2017-10-17T09:47:15.526Z,16.81
2017-10-17T09:49:41.782Z,16.86
2017-10-17T09:52:08.748Z,16.85
2017-10-17T09:54:35.081Z,16.86
2017-10-17T09:57:01.328Z,16.85
2017-10-17T09:59:27.564Z,16.94
2017-10-17T10:01:53.853Z,16.94
2017-10-17T10:04:20.165Z,17.08
2017-10-17T10:06:47.199Z,17.03
2017-10-17T10:09:14.204Z,16.99
2017-10-17T10:11:40.576Z,16.95
2017-10-17T10:14:07.612Z,17.03
2017-10-17T10:16:34.038Z,16.94
2017-10-17T10:19:00.314Z,17.02
2017-10-17T10:21:26.615Z,17.00
2017-10-17T10:23:53.665Z,17.11
2017-10-17T10:26:20.668Z,17.13
2017-10-17T10:28:46.950Z,17.19
2017-10-17T10:31:14.059Z,17.12
2017-10-17T10:33:40.349Z,17.14
2017-10-17T10:36:06.681Z,17.11
2017-10-17T10:38:33.531Z,17.18
2017-10-17T10:40:59.809Z,17.22
2017-10-17T10:43:26.120Z,17.20
2017-10-17T10:45:52.446Z,17.28
2017-10-17T10:48:18.709Z,17.12
2017-10-17T10:50:45.692Z,17.16
2017-10-17T10:53:11.938Z,17.27
2017-10-17T10:55:38.185Z,17.20
2017-10-17T10:58:04.453Z,17.20
2017-10-17T11:00:31.482Z,17.21
2017-10-17T11:02:58.473Z,17.24
2017-10-17T11:05:24.702Z,17.31
2017-10-17T11:07:51.085Z,17.39
2017-10-17T11:10:18.085Z,17.45
2017-10-17T11:12:44.430Z,17.47
2017-10-17T11:15:11.686Z,17.44
2017-10-17T11:17:37.941Z,17.62
2017-10-17T11:20:04.190Z,17.56
2017-10-17T11:22:31.187Z,17.60
2017-10-17T11:24:57.471Z,17.49
2017-10-17T11:27:24.525Z,17.55
2017-10-17T11:29:50.810Z,17.57
2017-10-17T11:32:17.053Z,17.47
2017-10-17T11:34:44.070Z,17.48
2017-10-17T11:37:10.321Z,17.43
2017-10-17T11:39:36.587Z,17.44
2017-10-17T11:42:21.289Z,17.53
2017-10-17T11:44:47.577Z,17.44
2017-10-17T11:47:13.855Z,17.57
2017-10-17T11:49:40.134Z,17.57
2017-10-17T11:52:06.424Z,17.52
2017-10-17T11:54:32.690Z,17.48
2017-10-17T11:56:58.997Z,17.51
2017-10-17T11:59:29.506Z,17.61
2017-10-17T12:01:55.797Z,17.47
2017-10-17T12:04:22.093Z,17.67
2017-10-17T12:06:49.158Z,17.72
2017-10-17T12:09:15.432Z,17.61
2017-10-17T12:11:41.714Z,17.72
2017-10-17T12:14:08.042Z,17.62
2017-10-17T12:16:34.307Z,17.69
2017-10-17T12:19:00.578Z,17.87
2017-10-17T12:21:27.899Z,17.86
2017-10-17T12:23:54.169Z,17.75
2017-10-17T12:26:21.178Z,17.81
2017-10-17T12:28:47.477Z,17.68
2017-10-17T12:31:13.730Z,17.77
2017-10-17T12:33:40.763Z,17.87
2017-10-17T12:36:07.310Z,18.03
2017-10-17T12:38:33.869Z,17.91
2017-10-17T12:41:00.103Z,17.92
2017-10-17T12:43:26.369Z,18.15
2017-10-17T12:45:52.602Z,18.01
2017-10-17T12:48:18.884Z,17.90
2017-10-17T12:50:45.409Z,18.24
2017-10-17T12:53:11.663Z,18.29
2017-10-17T12:55:38.679Z,18.36
2017-10-17T12:58:04.942Z,18.36
2017-10-17T13:00:31.967Z,18.08
2017-10-17T13:02:58.213Z,18.20
2017-10-17T13:05:25.209Z,18.11
2017-10-17T13:07:51.467Z,18.05
2017-10-17T13:10:17.747Z,18.25
2017-10-17T13:12:43.973Z,18.14
2017-10-17T13:15:10.249Z,18.28
2017-10-17T13:17:36.770Z,18.13
2017-10-17T13:20:03.048Z,18.01
2017-10-17T13:22:30.052Z,17.86
2017-10-17T13:24:56.438Z,18.11
2017-10-17T13:27:22.708Z,18.04
2017-10-17T13:29:48.960Z,17.81
2017-10-17T13:32:16.582Z,17.77
2017-10-17T13:34:42.850Z,17.86
2017-10-17T13:37:09.125Z,18.04
2017-10-17T13:39:35.404Z,18.01
2017-10-17T13:42:01.687Z,17.71
2017-10-17T13:44:27.913Z,17.67
2017-10-17T13:46:54.178Z,17.76
2017-10-17T13:49:20.811Z,17.40
2017-10-17T13:51:47.058Z,17.71
2017-10-17T13:54:15.306Z,17.55
2017-10-17T13:56:41.813Z,17.50
2017-10-17T13:59:08.084Z,17.39
2017-10-17T14:01:34.370Z,17.44
2017-10-17T14:04:00.679Z,17.36
2017-10-17T14:06:27.729Z,17.50
2017-10-17T14:08:54.777Z,17.82
2017-10-17T14:11:22.039Z,17.49
2017-10-17T14:13:48.326Z,17.52
2017-10-17T14:16:14.641Z,17.38
2017-10-17T14:18:41.003Z,17.40
2017-10-17T14:21:08.044Z,17.31
2017-10-17T14:23:34.321Z,17.24
2017-10-17T14:26:00.953Z,17.27
2017-10-17T14:28:27.277Z,17.29
2017-10-17T14:30:53.621Z,17.10
2017-10-17T14:33:19.934Z,17.00
2017-10-17T14:35:46.204Z,17.11
2017-10-17T14:38:12.803Z,16.93
2017-10-17T14:40:39.344Z,16.87
2017-10-17T14:43:05.644Z,16.81
2017-10-17T14:45:32.647Z,16.92
2017-10-17T14:47:59.009Z,17.06
2017-10-17T14:50:25.293Z,16.78
2017-10-17T14:52:51.570Z,16.78
2017-10-17T14:55:17.870Z,16.70
2017-10-17T14:57:44.127Z,16.74
2017-10-17T15:00:10.396Z,16.77
2017-10-17T15:02:36.673Z,16.81
2017-10-17T15:05:02.962Z,16.64
2017-10-17T15:07:29.279Z,16.84
2017-10-17T15:09:55.562Z,16.95
2017-10-17T15:12:21.845Z,16.86
2017-10-17T15:14:48.368Z,16.48
2017-10-17T15:17:14.637Z,16.48
2017-10-17T15:19:40.903Z,16.48
2017-10-17T15:22:07.993Z,16.54
2017-10-17T15:24:34.279Z,16.77
2017-10-17T15:27:00.550Z,16.44
2017-10-17T15:29:26.834Z,16.56
2017-10-17T15:31:53.099Z,16.49
2017-10-17T15:34:19.408Z,16.27
2017-10-17T15:36:46.446Z,15.99
2017-10-17T15:39:13.534Z,15.98
2017-10-17T15:41:39.838Z,15.92
2017-10-17T15:44:06.156Z,15.88
2017-10-17T15:46:33.191Z,15.83
2017-10-17T15:48:59.468Z,15.81
2017-10-17T15:51:25.791Z,15.81
2017-10-17T15:53:52.023Z,15.72
2017-10-17T15:56:18.327Z,15.77
2017-10-17T15:58:45.379Z,15.70
2017-10-17T16:01:12.405Z,15.65
2017-10-17T16:03:38.654Z,15.63
2017-10-17T16:06:05.800Z,15.60
2017-10-17T16:08:32.840Z,15.52
2017-10-17T16:10:59.862Z,15.47
2017-10-17T16:13:26.195Z,15.43
2017-10-17T16:15:52.487Z,15.38
2017-10-17T16:18:18.759Z,15.35
2017-10-17T16:20:45.060Z,15.35
2017-10-17T16:23:11.316Z,15.33
2017-10-17T16:25:37.602Z,15.29
2017-10-17T16:28:03.960Z,15.29
2017-10-17T16:30:30.255Z,15.25
2017-10-17T16:32:56.484Z,15.21
2017-10-17T16:35:22.799Z,15.19
2017-10-17T16:37:49.440Z,15.18
2017-10-17T16:40:15.725Z,15.18
2017-10-17T16:42:42.006Z,15.16
2017-10-17T16:45:08.374Z,15.14
2017-10-17T16:47:34.677Z,15.09
2017-10-17T16:50:01.008Z,15.07
2017-10-17T16:52:27.361Z,15.06
2017-10-17T16:54:53.616Z,15.05
2017-10-17T16:57:19.895Z,15.07
2017-10-17T16:59:46.209Z,15.03
2017-10-17T17:02:12.507Z,14.95
2017-10-17T17:04:39.541Z,14.92
2017-10-17T17:07:06.121Z,14.89
2017-10-17T17:09:32.459Z,14.90
2017-10-17T17:11:58.744Z,14.88
2017-10-17T17:14:25.256Z,14.86
2017-10-17T17:16:51.541Z,14.85
2017-10-17T17:19:17.819Z,14.84
2017-10-17T17:21:44.521Z,14.76
2017-10-17T17:24:10.797Z,14.71
2017-10-17T17:26:37.057Z,14.68
2017-10-17T17:29:04.108Z,14.69
2017-10-17T17:31:31.153Z,14.67
2017-10-17T17:33:58.190Z,14.64
2017-10-17T17:36:25.572Z,14.62
2017-10-17T17:38:51.822Z,14.59
2017-10-17T17:41:18.073Z,14.60
2017-10-17T17:43:44.372Z,14.62
2017-10-17T17:46:10.673Z,14.58
2017-10-17T17:48:37.762Z,14.56
2017-10-17T17:51:04.051Z,14.58
2017-10-17T17:53:31.074Z,14.55
2017-10-17T17:55:58.121Z,14.54
2017-10-17T17:58:25.154Z,14.53
2017-10-17T18:00:51.502Z,14.49
2017-10-17T18:03:18.565Z,14.45
2017-10-17T18:05:45.545Z,14.49
2017-10-17T18:08:11.861Z,14.45
2017-10-17T18:10:38.147Z,14.44
2017-10-17T18:13:04.442Z,14.36
2017-10-17T18:15:30.761Z,14.35
2017-10-17T18:17:57.040Z,14.37
2017-10-17T18:20:24.157Z,14.34
2017-10-17T18:22:50.563Z,14.29
2017-10-17T18:25:16.870Z,14.26
2017-10-17T18:27:43.919Z,14.22
2017-10-17T18:30:11.079Z,14.24
2017-10-17T18:32:37.377Z,14.14
2017-10-17T18:35:03.669Z,14.17
2017-10-17T18:37:30.025Z,14.15
2017-10-17T18:39:56.333Z,14.12
2017-10-17T18:42:22.735Z,14.11
2017-10-17T18:44:49.143Z,14.06
2017-10-17T18:47:16.247Z,14.06
2017-10-17T18:49:42.578Z,14.04
2017-10-17T18:52:09.238Z,14.02
2017-10-17T18:54:35.641Z,14.01
2017-10-17T18:57:01.989Z,13.99
2017-10-17T18:59:28.382Z,13.97
2017-10-17T19:01:54.777Z,13.94
2017-10-17T19:04:21.811Z,13.91
2017-10-17T19:06:48.425Z,13.87
2017-10-17T19:09:14.714Z,13.90
2017-10-17T19:11:41.126Z,13.91
2017-10-17T19:14:08.265Z,13.89
2017-10-17T19:16:35.380Z,13.85
2017-10-17T19:19:01.753Z,13.82
2017-10-17T19:21:29.273Z,13.80
2017-10-17T19:23:55.588Z,13.82
2017-10-17T19:26:21.945Z,13.76
2017-10-17T19:28:48.696Z,13.76
2017-10-17T19:31:15.096Z,13.74
2017-10-17T19:33:41.470Z,13.70
2017-10-17T19:36:10.292Z,13.67
2017-10-17T19:38:36.683Z,13.66
2017-10-17T19:41:02.976Z,13.68
2017-10-17T19:43:29.325Z,13.56
2017-10-17T19:45:55.592Z,13.53
2017-10-17T19:48:22.674Z,13.43
2017-10-17T19:50:48.972Z,13.40
2017-10-17T19:53:15.984Z,13.48
2017-10-17T19:55:42.321Z,13.46
2017-10-17T19:58:08.622Z,13.49
2017-10-17T20:00:34.957Z,13.51
2017-10-17T20:03:01.249Z,13.52
2017-10-17T20:05:27.548Z,13.51
2017-10-17T20:07:53.882Z,13.53
2017-10-17T20:10:20.184Z,13.52
2017-10-17T20:12:46.506Z,13.52
2017-10-17T20:15:13.104Z,13.56
2017-10-17T20:17:40.161Z,13.58
2017-10-17T20:20:06.498Z,13.47
2017-10-17T20:22:32.892Z,13.48
2017-10-17T20:24:59.997Z,13.50
2017-10-17T20:27:26.305Z,13.44
2017-10-17T20:29:52.636Z,13.45
2017-10-17T20:32:19.160Z,13.46
2017-10-17T20:34:45.456Z,13.48
2017-10-17T20:37:11.762Z,13.42
2017-10-17T20:39:38.172Z,13.34
2017-10-17T20:42:04.459Z,13.35
2017-10-17T20:44:31.854Z,13.35
2017-10-17T20:46:58.208Z,13.28
2017-10-17T20:49:24.536Z,13.29
2017-10-17T20:51:50.869Z,13.38
2017-10-17T20:54:17.200Z,13.38
2017-10-17T20:56:43.504Z,13.38
2017-10-17T20:59:09.797Z,13.28
2017-10-17T21:01:36.841Z,13.32
2017-10-17T21:04:03.905Z,13.37
2017-10-17T21:06:30.945Z,13.36
2017-10-17T21:08:58.176Z,13.40
2017-10-17T21:11:24.484Z,13.37
2017-10-17T21:13:50.792Z,13.30
2017-10-17T21:16:17.517Z,13.30
2017-10-17T21:18:43.829Z,13.27
2017-10-17T21:21:10.897Z,13.28
2017-10-17T21:23:37.254Z,13.26
2017-10-17T21:26:03.540Z,13.20
2017-10-17T21:28:29.879Z,13.24
2017-10-17T21:30:56.288Z,13.21
2017-10-17T21:33:23.324Z,13.26
2017-10-17T21:35:50.346Z,13.38
2017-10-17T21:38:16.620Z,13.30
2017-10-17T21:40:43.653Z,13.26
2017-10-17T21:43:09.932Z,13.19
2017-10-17T21:45:36.444Z,13.12
2017-10-17T21:48:02.764Z,13.10
2017-10-17T21:50:30.745Z,13.06
2017-10-17T21:52:57.052Z,13.09
2017-10-17T21:55:24.088Z,13.07
2017-10-17T21:57:50.358Z,13.00
2017-10-17T22:00:16.744Z,12.98
2017-10-17T22:02:43.058Z,12.93
2017-10-17T22:05:09.608Z,12.96
2017-10-17T22:07:35.909Z,12.95
2017-10-17T22:10:02.196Z,12.87
2017-10-17T22:12:28.750Z,12.79
2017-10-17T22:14:55.011Z,12.80
2017-10-17T22:17:21.318Z,12.77
2017-10-17T22:19:47.660Z,12.73
2017-10-17T22:22:13.917Z,12.76
2017-10-17T22:24:40.198Z,12.75
2017-10-17T22:27:06.509Z,12.74
2017-10-17T22:29:32.797Z,12.71
2017-10-17T22:31:59.069Z,12.69
2017-10-17T22:34:26.431Z,12.66
2017-10-17T22:36:52.728Z,12.61
2017-10-17T22:39:18.997Z,12.55
2017-10-17T22:41:45.304Z,12.55
2017-10-17T22:44:12.348Z,12.50
2017-10-17T22:46:39.426Z,12.53
2017-10-17T22:49:05.763Z,12.48
2017-10-17T22:51:32.044Z,12.50
2017-10-17T22:53:58.311Z,12.44
2017-10-17T22:56:24.614Z,12.38
2017-10-17T22:58:51.897Z,12.36
2017-10-17T23:01:18.167Z,12.41
2017-10-17T23:03:44.468Z,12.39
2017-10-17T23:06:10.809Z,12.37
2017-10-17T23:08:37.120Z,12.30
2017-10-17T23:11:03.419Z,12.29
2017-10-17T23:13:30.438Z,12.37
2017-10-17T23:15:56.723Z,12.47
2017-10-17T23:18:41.617Z,12.34
2017-10-17T23:21:07.909Z,12.26
2017-10-17T23:23:34.192Z,12.34
2017-10-17T23:26:00.773Z,12.34
2017-10-17T23:28:27.048Z,12.38
2017-10-17T23:30:53.318Z,12.42
2017-10-17T23:33:19.607Z,12.44
2017-10-17T23:35:45.881Z,12.37
2017-10-17T23:38:12.421Z,12.41
2017-10-17T23:40:38.691Z,12.41
2017-10-17T23:43:05.720Z,12.35
2017-10-17T23:45:32.049Z,12.34
2017-10-17T23:47:58.339Z,12.22
2017-10-17T23:50:25.377Z,12.25
2017-10-17T23:52:52.432Z,12.37
2017-10-17T23:55:19.455Z,12.33
2017-10-17T23:57:45.736Z,12.31
